sensor_id;sensor_type;location;lat;lon;timestamp;temperature;humidity
8332;DHT22;4203;48.144;14.118;2023-10-19T00:00:52;7.80;99.90
8332;DHT22;4203;48.144;14.118;2023-10-19T00:03:24;7.80;99.90
8332;DHT22;4203;48.144;14.118;2023-10-19T00:05:50;7.80;99.90
8332;DHT22;4203;48.144;14.118;2023-10-19T00:08:18;7.70;99.90
8332;DHT22;4203;48.144;14.118;2023-10-19T00:10:48;7.60;99.90
8332;DHT22;4203;48.144;14.118;2023-10-19T00:13:28;7.60;99.90
8332;DHT22;4203;48.144;14.118;2023-10-19T00:15:55;7.60;99.90
8332;DHT22;4203;48.144;14.118;2023-10-19T00:18:25;7.50;99.90
8332;DHT22;4203;48.144;14.118;2023-10-19T00:20:52;7.40;99.90
8332;DHT22;4203;48.144;14.118;2023-10-19T00:23:25;7.40;99.90
8332;DHT22;4203;48.144;14.118;2023-10-19T00:25:55;7.30;99.90
8332;DHT22;4203;48.144;14.118;2023-10-19T00:28:23;7.30;99.90
8332;DHT22;4203;48.144;14.118;2023-10-19T00:30:53;7.30;99.90
8332;DHT22;4203;48.144;14.118;2023-10-19T00:33:27;7.20;99.90
8332;DHT22;4203;48.144;14.118;2023-10-19T00:35:55;7.20;99.90
8332;DHT22;4203;48.144;14.118;2023-10-19T00:38:33;7.20;99.90
8332;DHT22;4203;48.144;14.118;2023-10-19T00:41:13;7.10;99.90
8332;DHT22;4203;48.144;14.118;2023-10-19T00:43:46;7.10;99.90
8332;DHT22;4203;48.144;14.118;2023-10-19T00:46:15;7.00;99.90
8332;DHT22;4203;48.144;14.118;2023-10-19T00:48:53;7.00;99.90
8332;DHT22;4203;48.144;14.118;2023-10-19T00:51:22;7.00;99.90
8332;DHT22;4203;48.144;14.118;2023-10-19T00:54:06;7.00;99.90
8332;DHT22;4203;48.144;14.118;2023-10-19T00:56:36;6.90;99.90
8332;DHT22;4203;48.144;14.118;2023-10-19T00:59:07;6.90;99.90
8332;DHT22;4203;48.144;14.118;2023-10-19T01:01:41;6.90;99.90
8332;DHT22;4203;48.144;14.118;2023-10-19T01:04:12;6.90;99.90
8332;DHT22;4203;48.144;14.118;2023-10-19T01:06:46;6.90;99.90
8332;DHT22;4203;48.144;14.118;2023-10-19T01:09:27;6.80;99.90
8332;DHT22;4203;48.144;14.118;2023-10-19T01:11:54;6.80;99.90
8332;DHT22;4203;48.144;14.118;2023-10-19T01:14:26;6.70;99.90
8332;DHT22;4203;48.144;14.118;2023-10-19T01:16:55;6.70;99.90
8332;DHT22;4203;48.144;14.118;2023-10-19T01:19:24;6.60;99.90
8332;DHT22;4203;48.144;14.118;2023-10-19T01:21:53;6.70;99.90
8332;DHT22;4203;48.144;14.118;2023-10-19T01:24:27;6.60;99.90
8332;DHT22;4203;48.144;14.118;2023-10-19T01:27:06;6.60;99.90
8332;DHT22;4203;48.144;14.118;2023-10-19T01:29:35;6.50;99.90
8332;DHT22;4203;48.144;14.118;2023-10-19T01:32:04;6.50;99.90
8332;DHT22;4203;48.144;14.118;2023-10-19T01:34:34;6.40;99.90
8332;DHT22;4203;48.144;14.118;2023-10-19T01:37:02;6.30;99.90
8332;DHT22;4203;48.144;14.118;2023-10-19T01:39:32;6.30;99.90
8332;DHT22;4203;48.144;14.118;2023-10-19T01:42:01;6.20;99.90
8332;DHT22;4203;48.144;14.118;2023-10-19T01:44:30;6.20;99.90
8332;DHT22;4203;48.144;14.118;2023-10-19T01:46:56;6.10;99.90
8332;DHT22;4203;48.144;14.118;2023-10-19T01:49:26;6.10;99.90
8332;DHT22;4203;48.144;14.118;2023-10-19T01:51:54;6.00;99.90
8332;DHT22;4203;48.144;14.118;2023-10-19T01:54:22;6.00;99.90
8332;DHT22;4203;48.144;14.118;2023-10-19T01:56:53;5.90;99.90
8332;DHT22;4203;48.144;14.118;2023-10-19T01:59:23;5.90;99.90
8332;DHT22;4203;48.144;14.118;2023-10-19T02:01:53;5.80;99.90
8332;DHT22;4203;48.144;14.118;2023-10-19T02:04:21;5.60;99.90
8332;DHT22;4203;48.144;14.118;2023-10-19T02:06:48;5.60;99.90
8332;DHT22;4203;48.144;14.118;2023-10-19T02:09:17;5.60;99.90
8332;DHT22;4203;48.144;14.118;2023-10-19T02:11:47;5.50;99.90
8332;DHT22;4203;48.144;14.118;2023-10-19T02:14:17;5.50;99.90
8332;DHT22;4203;48.144;14.118;2023-10-19T02:16:46;5.50;99.90
8332;DHT22;4203;48.144;14.118;2023-10-19T02:19:17;5.50;99.90
8332;DHT22;4203;48.144;14.118;2023-10-19T02:21:43;5.40;99.90
8332;DHT22;4203;48.144;14.118;2023-10-19T02:24:13;5.40;99.90
8332;DHT22;4203;48.144;14.118;2023-10-19T02:26:40;5.40;99.90
8332;DHT22;4203;48.144;14.118;2023-10-19T02:29:08;5.40;99.90
8332;DHT22;4203;48.144;14.118;2023-10-19T02:31:39;5.40;99.90
8332;DHT22;4203;48.144;14.118;2023-10-19T02:34:08;5.40;99.90
8332;DHT22;4203;48.144;14.118;2023-10-19T02:36:36;5.30;99.90
8332;DHT22;4203;48.144;14.118;2023-10-19T02:39:05;5.30;99.90
8332;DHT22;4203;48.144;14.118;2023-10-19T02:41:34;5.30;99.90
8332;DHT22;4203;48.144;14.118;2023-10-19T02:44:01;5.20;99.90
8332;DHT22;4203;48.144;14.118;2023-10-19T02:46:33;5.30;99.90
8332;DHT22;4203;48.144;14.118;2023-10-19T02:49:02;5.20;99.90
8332;DHT22;4203;48.144;14.118;2023-10-19T02:51:30;5.20;99.90
8332;DHT22;4203;48.144;14.118;2023-10-19T02:53:56;5.10;99.90
8332;DHT22;4203;48.144;14.118;2023-10-19T02:56:26;5.00;99.90
8332;DHT22;4203;48.144;14.118;2023-10-19T02:58:56;5.00;99.90
8332;DHT22;4203;48.144;14.118;2023-10-19T03:01:28;4.80;99.90
8332;DHT22;4203;48.144;14.118;2023-10-19T03:03:57;4.90;99.90
8332;DHT22;4203;48.144;14.118;2023-10-19T03:06:27;5.00;99.90
8332;DHT22;4203;48.144;14.118;2023-10-19T03:08:57;4.90;99.90
8332;DHT22;4203;48.144;14.118;2023-10-19T03:11:26;4.90;99.90
8332;DHT22;4203;48.144;14.118;2023-10-19T03:13:54;4.80;99.90
8332;DHT22;4203;48.144;14.118;2023-10-19T03:16:23;4.80;99.90
8332;DHT22;4203;48.144;14.118;2023-10-19T03:18:52;4.80;99.90
8332;DHT22;4203;48.144;14.118;2023-10-19T03:21:20;4.70;99.90
8332;DHT22;4203;48.144;14.118;2023-10-19T03:23:54;4.70;99.90
8332;DHT22;4203;48.144;14.118;2023-10-19T03:26:22;4.70;99.90
8332;DHT22;4203;48.144;14.118;2023-10-19T03:28:53;4.70;99.90
8332;DHT22;4203;48.144;14.118;2023-10-19T03:31:22;4.70;99.90
8332;DHT22;4203;48.144;14.118;2023-10-19T03:33:51;4.70;99.90
8332;DHT22;4203;48.144;14.118;2023-10-19T03:36:22;4.70;99.90
8332;DHT22;4203;48.144;14.118;2023-10-19T03:38:49;4.80;99.90
8332;DHT22;4203;48.144;14.118;2023-10-19T03:41:20;4.70;99.90
8332;DHT22;4203;48.144;14.118;2023-10-19T03:43:51;4.70;99.90
8332;DHT22;4203;48.144;14.118;2023-10-19T03:46:20;4.60;99.90
8332;DHT22;4203;48.144;14.118;2023-10-19T03:48:54;4.60;99.90
8332;DHT22;4203;48.144;14.118;2023-10-19T03:51:25;4.50;99.90
8332;DHT22;4203;48.144;14.118;2023-10-19T03:53:52;4.50;99.90
8332;DHT22;4203;48.144;14.118;2023-10-19T03:56:25;4.50;99.90
8332;DHT22;4203;48.144;14.118;2023-10-19T03:58:53;4.50;99.90
8332;DHT22;4203;48.144;14.118;2023-10-19T04:01:24;4.50;99.90
8332;DHT22;4203;48.144;14.118;2023-10-19T04:03:51;4.50;99.90
8332;DHT22;4203;48.144;14.118;2023-10-19T04:06:21;4.40;99.90
8332;DHT22;4203;48.144;14.118;2023-10-19T04:08:48;4.40;99.90
8332;DHT22;4203;48.144;14.118;2023-10-19T04:11:17;4.40;99.90
8332;DHT22;4203;48.144;14.118;2023-10-19T04:14:00;4.40;99.90
8332;DHT22;4203;48.144;14.118;2023-10-19T04:16:29;4.40;99.90
8332;DHT22;4203;48.144;14.118;2023-10-19T04:19:02;4.40;99.90
8332;DHT22;4203;48.144;14.118;2023-10-19T04:21:30;4.40;99.90
8332;DHT22;4203;48.144;14.118;2023-10-19T04:23:59;4.50;99.90
8332;DHT22;4203;48.144;14.118;2023-10-19T04:26:26;4.50;99.90
8332;DHT22;4203;48.144;14.118;2023-10-19T04:28:54;4.50;99.90
8332;DHT22;4203;48.144;14.118;2023-10-19T04:31:23;4.40;99.90
8332;DHT22;4203;48.144;14.118;2023-10-19T04:33:50;4.30;99.90
8332;DHT22;4203;48.144;14.118;2023-10-19T04:36:21;4.20;99.90
8332;DHT22;4203;48.144;14.118;2023-10-19T04:38:48;4.20;99.90
8332;DHT22;4203;48.144;14.118;2023-10-19T04:41:17;4.20;99.90
8332;DHT22;4203;48.144;14.118;2023-10-19T04:43:44;4.20;99.90
8332;DHT22;4203;48.144;14.118;2023-10-19T04:46:15;4.20;99.90
8332;DHT22;4203;48.144;14.118;2023-10-19T04:48:45;4.10;99.90
8332;DHT22;4203;48.144;14.118;2023-10-19T04:51:13;4.20;99.90
8332;DHT22;4203;48.144;14.118;2023-10-19T04:53:40;4.20;99.90
8332;DHT22;4203;48.144;14.118;2023-10-19T04:56:08;4.10;99.90
8332;DHT22;4203;48.144;14.118;2023-10-19T04:58:38;4.10;99.90
8332;DHT22;4203;48.144;14.118;2023-10-19T05:01:05;4.00;99.90
8332;DHT22;4203;48.144;14.118;2023-10-19T05:03:32;4.00;99.90
8332;DHT22;4203;48.144;14.118;2023-10-19T05:06:03;4.00;99.90
8332;DHT22;4203;48.144;14.118;2023-10-19T05:08:30;4.00;99.90
8332;DHT22;4203;48.144;14.118;2023-10-19T05:10:58;3.90;99.90
8332;DHT22;4203;48.144;14.118;2023-10-19T05:13:26;3.90;99.90
8332;DHT22;4203;48.144;14.118;2023-10-19T05:15:54;3.90;99.90
8332;DHT22;4203;48.144;14.118;2023-10-19T05:18:22;4.00;99.90
8332;DHT22;4203;48.144;14.118;2023-10-19T05:20:50;3.90;99.90
8332;DHT22;4203;48.144;14.118;2023-10-19T05:23:22;4.00;99.90
8332;DHT22;4203;48.144;14.118;2023-10-19T05:25:52;3.90;99.90
8332;DHT22;4203;48.144;14.118;2023-10-19T05:28:20;4.00;99.90
8332;DHT22;4203;48.144;14.118;2023-10-19T05:30:48;4.00;99.90
8332;DHT22;4203;48.144;14.118;2023-10-19T05:33:16;3.90;99.90
8332;DHT22;4203;48.144;14.118;2023-10-19T05:35:47;3.90;99.90
8332;DHT22;4203;48.144;14.118;2023-10-19T05:38:14;3.90;99.90
8332;DHT22;4203;48.144;14.118;2023-10-19T05:40:43;3.90;99.90
8332;DHT22;4203;48.144;14.118;2023-10-19T05:43:11;3.90;99.90
8332;DHT22;4203;48.144;14.118;2023-10-19T05:45:38;3.90;99.90
8332;DHT22;4203;48.144;14.118;2023-10-19T05:48:06;4.00;99.90
8332;DHT22;4203;48.144;14.118;2023-10-19T05:50:35;4.10;99.90
8332;DHT22;4203;48.144;14.118;2023-10-19T05:53:03;4.10;99.90
8332;DHT22;4203;48.144;14.118;2023-10-19T05:55:31;4.10;99.90
8332;DHT22;4203;48.144;14.118;2023-10-19T05:58:01;4.20;99.90
8332;DHT22;4203;48.144;14.118;2023-10-19T06:00:30;4.20;99.90
8332;DHT22;4203;48.144;14.118;2023-10-19T06:02:58;4.20;99.90
8332;DHT22;4203;48.144;14.118;2023-10-19T06:05:25;4.20;99.90
8332;DHT22;4203;48.144;14.118;2023-10-19T06:07:52;4.30;99.90
8332;DHT22;4203;48.144;14.118;2023-10-19T06:10:20;4.40;99.90
8332;DHT22;4203;48.144;14.118;2023-10-19T06:12:49;4.50;99.90
8332;DHT22;4203;48.144;14.118;2023-10-19T06:15:19;4.60;99.90
8332;DHT22;4203;48.144;14.118;2023-10-19T06:17:48;4.70;99.90
8332;DHT22;4203;48.144;14.118;2023-10-19T06:20:16;4.80;99.90
8332;DHT22;4203;48.144;14.118;2023-10-19T06:22:53;4.90;99.90
8332;DHT22;4203;48.144;14.118;2023-10-19T06:25:22;5.00;99.90
8332;DHT22;4203;48.144;14.118;2023-10-19T06:27:50;5.10;99.90
8332;DHT22;4203;48.144;14.118;2023-10-19T06:30:19;5.30;99.90
8332;DHT22;4203;48.144;14.118;2023-10-19T06:32:49;5.40;99.90
8332;DHT22;4203;48.144;14.118;2023-10-19T06:35:18;5.40;99.90
8332;DHT22;4203;48.144;14.118;2023-10-19T06:37:45;5.50;99.90
8332;DHT22;4203;48.144;14.118;2023-10-19T06:40:14;5.60;99.90
8332;DHT22;4203;48.144;14.118;2023-10-19T06:42:42;5.70;99.90
8332;DHT22;4203;48.144;14.118;2023-10-19T06:45:12;5.90;99.90
8332;DHT22;4203;48.144;14.118;2023-10-19T06:47:43;6.00;99.90
8332;DHT22;4203;48.144;14.118;2023-10-19T06:50:11;6.10;99.90
8332;DHT22;4203;48.144;14.118;2023-10-19T06:52:42;6.30;99.90
8332;DHT22;4203;48.144;14.118;2023-10-19T06:55:10;6.50;99.90
8332;DHT22;4203;48.144;14.118;2023-10-19T06:57:41;6.70;99.90
8332;DHT22;4203;48.144;14.118;2023-10-19T07:00:11;6.90;99.90
8332;DHT22;4203;48.144;14.118;2023-10-19T07:02:43;7.00;99.90
8332;DHT22;4203;48.144;14.118;2023-10-19T07:05:12;7.10;99.90
8332;DHT22;4203;48.144;14.118;2023-10-19T07:07:40;7.30;99.90
8332;DHT22;4203;48.144;14.118;2023-10-19T07:10:08;7.40;99.90
8332;DHT22;4203;48.144;14.118;2023-10-19T07:12:39;7.50;99.90
8332;DHT22;4203;48.144;14.118;2023-10-19T07:15:08;7.50;99.90
8332;DHT22;4203;48.144;14.118;2023-10-19T07:17:39;7.60;99.90
8332;DHT22;4203;48.144;14.118;2023-10-19T07:20:10;7.70;99.90
8332;DHT22;4203;48.144;14.118;2023-10-19T07:22:51;7.80;99.90
8332;DHT22;4203;48.144;14.118;2023-10-19T07:25:18;7.80;99.90
8332;DHT22;4203;48.144;14.118;2023-10-19T07:27:48;7.90;99.90
8332;DHT22;4203;48.144;14.118;2023-10-19T07:30:15;7.90;99.90
8332;DHT22;4203;48.144;14.118;2023-10-19T07:32:48;8.00;99.90
8332;DHT22;4203;48.144;14.118;2023-10-19T07:35:21;8.10;99.90
8332;DHT22;4203;48.144;14.118;2023-10-19T07:37:51;8.20;99.90
8332;DHT22;4203;48.144;14.118;2023-10-19T07:40:19;8.30;99.90
8332;DHT22;4203;48.144;14.118;2023-10-19T07:42:46;8.30;99.90
8332;DHT22;4203;48.144;14.118;2023-10-19T07:45:15;8.40;99.90
8332;DHT22;4203;48.144;14.118;2023-10-19T07:47:42;8.40;99.90
8332;DHT22;4203;48.144;14.118;2023-10-19T07:50:10;6.90;99.90
8332;DHT22;4203;48.144;14.118;2023-10-19T07:52:43;8.60;99.90
8332;DHT22;4203;48.144;14.118;2023-10-19T07:55:12;8.60;99.90
8332;DHT22;4203;48.144;14.118;2023-10-19T07:57:39;8.70;99.90
8332;DHT22;4203;48.144;14.118;2023-10-19T08:00:08;8.70;99.90
8332;DHT22;4203;48.144;14.118;2023-10-19T08:02:36;8.90;99.90
8332;DHT22;4203;48.144;14.118;2023-10-19T08:05:06;8.90;99.90
8332;DHT22;4203;48.144;14.118;2023-10-19T08:07:34;9.00;99.90
8332;DHT22;4203;48.144;14.118;2023-10-19T08:10:04;9.10;99.90
8332;DHT22;4203;48.144;14.118;2023-10-19T08:12:32;9.20;99.90
8332;DHT22;4203;48.144;14.118;2023-10-19T08:14:59;9.30;99.90
8332;DHT22;4203;48.144;14.118;2023-10-19T08:17:27;9.50;99.90
8332;DHT22;4203;48.144;14.118;2023-10-19T08:19:54;9.50;99.90
8332;DHT22;4203;48.144;14.118;2023-10-19T08:22:22;9.70;99.90
8332;DHT22;4203;48.144;14.118;2023-10-19T08:24:51;9.70;99.90
8332;DHT22;4203;48.144;14.118;2023-10-19T08:27:26;9.80;99.90
8332;DHT22;4203;48.144;14.118;2023-10-19T08:29:55;9.80;99.90
8332;DHT22;4203;48.144;14.118;2023-10-19T08:32:23;9.80;99.90
8332;DHT22;4203;48.144;14.118;2023-10-19T08:34:50;9.80;99.90
8332;DHT22;4203;48.144;14.118;2023-10-19T08:37:18;9.90;99.90
8332;DHT22;4203;48.144;14.118;2023-10-19T08:39:45;10.00;99.90
8332;DHT22;4203;48.144;14.118;2023-10-19T08:42:12;10.10;99.90
8332;DHT22;4203;48.144;14.118;2023-10-19T08:44:41;10.10;99.90
8332;DHT22;4203;48.144;14.118;2023-10-19T08:47:08;10.20;99.90
8332;DHT22;4203;48.144;14.118;2023-10-19T08:49:38;10.30;99.90
8332;DHT22;4203;48.144;14.118;2023-10-19T08:52:07;10.30;99.90
8332;DHT22;4203;48.144;14.118;2023-10-19T08:54:35;10.40;99.90
8332;DHT22;4203;48.144;14.118;2023-10-19T08:57:02;10.50;99.90
8332;DHT22;4203;48.144;14.118;2023-10-19T08:59:30;10.60;99.90
8332;DHT22;4203;48.144;14.118;2023-10-19T09:02:02;10.70;99.90
8332;DHT22;4203;48.144;14.118;2023-10-19T09:04:29;10.70;99.90
8332;DHT22;4203;48.144;14.118;2023-10-19T09:06:57;10.80;99.90
8332;DHT22;4203;48.144;14.118;2023-10-19T09:09:28;10.90;99.90
8332;DHT22;4203;48.144;14.118;2023-10-19T09:11:58;11.00;99.90
8332;DHT22;4203;48.144;14.118;2023-10-19T09:14:32;11.10;99.90
8332;DHT22;4203;48.144;14.118;2023-10-19T09:17:01;11.30;99.90
8332;DHT22;4203;48.144;14.118;2023-10-19T09:19:37;11.40;99.90
8332;DHT22;4203;48.144;14.118;2023-10-19T09:22:04;11.50;99.90
8332;DHT22;4203;48.144;14.118;2023-10-19T09:24:43;11.50;99.90
8332;DHT22;4203;48.144;14.118;2023-10-19T09:27:11;11.50;99.90
8332;DHT22;4203;48.144;14.118;2023-10-19T09:29:39;11.50;99.90
8332;DHT22;4203;48.144;14.118;2023-10-19T09:32:09;11.50;99.90
8332;DHT22;4203;48.144;14.118;2023-10-19T09:34:40;11.60;99.90
8332;DHT22;4203;48.144;14.118;2023-10-19T09:37:10;11.70;99.90
8332;DHT22;4203;48.144;14.118;2023-10-19T09:39:38;11.80;99.90
8332;DHT22;4203;48.144;14.118;2023-10-19T09:42:10;11.90;99.90
8332;DHT22;4203;48.144;14.118;2023-10-19T09:44:41;12.10;99.90
8332;DHT22;4203;48.144;14.118;2023-10-19T09:47:14;12.20;99.90
8332;DHT22;4203;48.144;14.118;2023-10-19T09:49:45;12.30;99.90
8332;DHT22;4203;48.144;14.118;2023-10-19T09:52:16;12.20;99.90
8332;DHT22;4203;48.144;14.118;2023-10-19T09:54:54;12.30;99.90
8332;DHT22;4203;48.144;14.118;2023-10-19T09:57:30;12.40;99.90
8332;DHT22;4203;48.144;14.118;2023-10-19T10:00:02;12.50;99.90
8332;DHT22;4203;48.144;14.118;2023-10-19T10:02:39;12.50;99.90
8332;DHT22;4203;48.144;14.118;2023-10-19T10:08:34;12.50;99.90
8332;DHT22;4203;48.144;14.118;2023-10-19T10:11:22;12.60;99.90
8332;DHT22;4203;48.144;14.118;2023-10-19T10:13:52;12.50;99.90
8332;DHT22;4203;48.144;14.118;2023-10-19T10:16:23;12.40;99.90
8332;DHT22;4203;48.144;14.118;2023-10-19T10:18:55;12.10;99.90
8332;DHT22;4203;48.144;14.118;2023-10-19T10:21:25;12.20;99.90
8332;DHT22;4203;48.144;14.118;2023-10-19T10:23:53;12.20;99.90
8332;DHT22;4203;48.144;14.118;2023-10-19T10:26:22;12.10;99.90
8332;DHT22;4203;48.144;14.118;2023-10-19T10:29:11;12.10;99.90
8332;DHT22;4203;48.144;14.118;2023-10-19T10:31:44;12.10;99.90
8332;DHT22;4203;48.144;14.118;2023-10-19T10:34:42;12.10;99.90
8332;DHT22;4203;48.144;14.118;2023-10-19T10:37:11;12.10;99.90
8332;DHT22;4203;48.144;14.118;2023-10-19T10:39:39;12.00;99.90
8332;DHT22;4203;48.144;14.118;2023-10-19T10:42:08;11.90;99.90
8332;DHT22;4203;48.144;14.118;2023-10-19T10:44:37;11.80;99.90
8332;DHT22;4203;48.144;14.118;2023-10-19T10:47:07;11.70;99.90
8332;DHT22;4203;48.144;14.118;2023-10-19T10:49:46;11.80;99.90
8332;DHT22;4203;48.144;14.118;2023-10-19T10:52:24;11.80;99.90
8332;DHT22;4203;48.144;14.118;2023-10-19T10:54:52;11.90;99.90
8332;DHT22;4203;48.144;14.118;2023-10-19T10:57:19;11.90;99.90
8332;DHT22;4203;48.144;14.118;2023-10-19T10:59:47;12.00;99.90
8332;DHT22;4203;48.144;14.118;2023-10-19T11:02:17;12.10;99.90
8332;DHT22;4203;48.144;14.118;2023-10-19T11:04:47;12.20;99.90
8332;DHT22;4203;48.144;14.118;2023-10-19T11:07:19;12.30;99.90
8332;DHT22;4203;48.144;14.118;2023-10-19T11:09:47;12.40;99.90
8332;DHT22;4203;48.144;14.118;2023-10-19T11:12:15;12.50;99.90
8332;DHT22;4203;48.144;14.118;2023-10-19T11:14:52;12.70;99.90
8332;DHT22;4203;48.144;14.118;2023-10-19T11:17:20;12.80;99.90
8332;DHT22;4203;48.144;14.118;2023-10-19T11:19:55;12.90;99.90
8332;DHT22;4203;48.144;14.118;2023-10-19T11:22:23;13.00;99.90
8332;DHT22;4203;48.144;14.118;2023-10-19T11:24:52;13.20;99.90
8332;DHT22;4203;48.144;14.118;2023-10-19T11:27:24;13.40;99.90
8332;DHT22;4203;48.144;14.118;2023-10-19T11:29:55;13.90;99.90
8332;DHT22;4203;48.144;14.118;2023-10-19T11:32:23;14.50;99.90
8332;DHT22;4203;48.144;14.118;2023-10-19T11:34:52;15.40;99.90
8332;DHT22;4203;48.144;14.118;2023-10-19T11:37:21;16.30;99.90
8332;DHT22;4203;48.144;14.118;2023-10-19T11:39:49;16.70;99.90
8332;DHT22;4203;48.144;14.118;2023-10-19T11:42:17;16.80;99.90
8332;DHT22;4203;48.144;14.118;2023-10-19T11:44:45;16.60;99.90
8332;DHT22;4203;48.144;14.118;2023-10-19T11:47:13;16.10;99.90
8332;DHT22;4203;48.144;14.118;2023-10-19T11:49:40;15.80;99.90
8332;DHT22;4203;48.144;14.118;2023-10-19T11:52:08;15.10;99.90
8332;DHT22;4203;48.144;14.118;2023-10-19T11:54:36;14.70;99.90
8332;DHT22;4203;48.144;14.118;2023-10-19T11:57:04;14.40;99.90
8332;DHT22;4203;48.144;14.118;2023-10-19T11:59:31;14.30;99.90
8332;DHT22;4203;48.144;14.118;2023-10-19T12:01:58;14.20;99.90
8332;DHT22;4203;48.144;14.118;2023-10-19T12:04:29;14.20;99.90
8332;DHT22;4203;48.144;14.118;2023-10-19T12:06:58;14.20;99.90
8332;DHT22;4203;48.144;14.118;2023-10-19T12:09:26;14.10;99.90
8332;DHT22;4203;48.144;14.118;2023-10-19T12:11:55;14.30;99.90
8332;DHT22;4203;48.144;14.118;2023-10-19T12:14:22;14.30;99.90
8332;DHT22;4203;48.144;14.118;2023-10-19T12:16:50;14.50;99.90
8332;DHT22;4203;48.144;14.118;2023-10-19T12:19:17;14.70;99.90
8332;DHT22;4203;48.144;14.118;2023-10-19T12:21:45;15.00;99.90
8332;DHT22;4203;48.144;14.118;2023-10-19T12:24:12;15.10;99.90
8332;DHT22;4203;48.144;14.118;2023-10-19T12:26:41;15.50;99.90
8332;DHT22;4203;48.144;14.118;2023-10-19T12:29:09;15.90;99.90
8332;DHT22;4203;48.144;14.118;2023-10-19T12:31:37;16.20;99.90
8332;DHT22;4203;48.144;14.118;2023-10-19T12:34:06;16.70;99.90
8332;DHT22;4203;48.144;14.118;2023-10-19T12:36:34;17.80;99.90
8332;DHT22;4203;48.144;14.118;2023-10-19T12:39:02;18.60;99.90
8332;DHT22;4203;48.144;14.118;2023-10-19T12:41:31;19.50;99.90
8332;DHT22;4203;48.144;14.118;2023-10-19T12:43:59;20.10;99.90
8332;DHT22;4203;48.144;14.118;2023-10-19T12:46:30;20.50;99.90
8332;DHT22;4203;48.144;14.118;2023-10-19T12:48:57;20.90;99.90
8332;DHT22;4203;48.144;14.118;2023-10-19T12:51:25;21.70;99.90
8332;DHT22;4203;48.144;14.118;2023-10-19T12:53:52;22.30;99.90
8332;DHT22;4203;48.144;14.118;2023-10-19T12:56:20;22.80;99.90
8332;DHT22;4203;48.144;14.118;2023-10-19T12:58:50;23.50;99.90
8332;DHT22;4203;48.144;14.118;2023-10-19T13:01:17;23.80;99.90
8332;DHT22;4203;48.144;14.118;2023-10-19T13:03:47;24.10;99.90
8332;DHT22;4203;48.144;14.118;2023-10-19T13:06:17;24.50;99.90
8332;DHT22;4203;48.144;14.118;2023-10-19T13:08:45;24.90;99.90
8332;DHT22;4203;48.144;14.118;2023-10-19T13:11:13;25.30;99.90
8332;DHT22;4203;48.144;14.118;2023-10-19T13:13:40;24.90;99.90
8332;DHT22;4203;48.144;14.118;2023-10-19T13:16:08;24.30;99.90
8332;DHT22;4203;48.144;14.118;2023-10-19T13:18:36;23.80;99.90
8332;DHT22;4203;48.144;14.118;2023-10-19T13:21:07;23.60;99.90
8332;DHT22;4203;48.144;14.118;2023-10-19T13:23:37;23.80;99.90
8332;DHT22;4203;48.144;14.118;2023-10-19T13:26:05;24.60;99.90
8332;DHT22;4203;48.144;14.118;2023-10-19T13:28:44;24.70;99.90
8332;DHT22;4203;48.144;14.118;2023-10-19T13:31:11;24.20;99.90
8332;DHT22;4203;48.144;14.118;2023-10-19T13:33:40;24.10;99.90
8332;DHT22;4203;48.144;14.118;2023-10-19T13:36:11;24.00;99.90
8332;DHT22;4203;48.144;14.118;2023-10-19T13:38:39;24.10;99.90
8332;DHT22;4203;48.144;14.118;2023-10-19T13:41:06;24.20;99.90
8332;DHT22;4203;48.144;14.118;2023-10-19T13:43:35;23.60;99.90
8332;DHT22;4203;48.144;14.118;2023-10-19T13:46:03;23.00;99.90
8332;DHT22;4203;48.144;14.118;2023-10-19T13:48:30;22.50;99.90
8332;DHT22;4203;48.144;14.118;2023-10-19T13:50:58;22.00;99.90
8332;DHT22;4203;48.144;14.118;2023-10-19T13:53:33;21.40;99.90
8332;DHT22;4203;48.144;14.118;2023-10-19T13:56:01;20.70;99.90
8332;DHT22;4203;48.144;14.118;2023-10-19T13:58:28;20.10;99.90
8332;DHT22;4203;48.144;14.118;2023-10-19T14:00:55;19.60;99.90
8332;DHT22;4203;48.144;14.118;2023-10-19T14:03:22;19.40;99.90
8332;DHT22;4203;48.144;14.118;2023-10-19T14:05:50;19.00;99.90
8332;DHT22;4203;48.144;14.118;2023-10-19T14:08:19;18.70;99.90
8332;DHT22;4203;48.144;14.118;2023-10-19T14:10:48;18.30;99.90
8332;DHT22;4203;48.144;14.118;2023-10-19T14:13:15;18.00;99.90
8332;DHT22;4203;48.144;14.118;2023-10-19T14:15:43;17.70;99.90
8332;DHT22;4203;48.144;14.118;2023-10-19T14:18:11;17.30;99.90
8332;DHT22;4203;48.144;14.118;2023-10-19T14:20:38;17.00;99.90
8332;DHT22;4203;48.144;14.118;2023-10-19T14:23:06;16.80;99.90
8332;DHT22;4203;48.144;14.118;2023-10-19T14:25:37;16.60;99.90
8332;DHT22;4203;48.144;14.118;2023-10-19T14:28:06;16.50;99.90
8332;DHT22;4203;48.144;14.118;2023-10-19T14:30:35;16.30;99.90
8332;DHT22;4203;48.144;14.118;2023-10-19T14:33:03;16.10;99.90
8332;DHT22;4203;48.144;14.118;2023-10-19T14:35:35;15.90;99.90
8332;DHT22;4203;48.144;14.118;2023-10-19T14:38:05;15.80;99.90
8332;DHT22;4203;48.144;14.118;2023-10-19T14:40:35;15.60;99.90
8332;DHT22;4203;48.144;14.118;2023-10-19T14:43:03;15.50;99.90
8332;DHT22;4203;48.144;14.118;2023-10-19T14:45:32;15.50;99.90
8332;DHT22;4203;48.144;14.118;2023-10-19T14:47:59;15.40;99.90
8332;DHT22;4203;48.144;14.118;2023-10-19T14:50:29;15.30;99.90
8332;DHT22;4203;48.144;14.118;2023-10-19T14:52:56;15.10;99.90
8332;DHT22;4203;48.144;14.118;2023-10-19T14:55:25;15.00;99.90
8332;DHT22;4203;48.144;14.118;2023-10-19T14:57:53;14.90;99.90
8332;DHT22;4203;48.144;14.118;2023-10-19T15:00:22;14.80;99.90
8332;DHT22;4203;48.144;14.118;2023-10-19T15:02:54;14.60;99.90
8332;DHT22;4203;48.144;14.118;2023-10-19T15:05:22;14.50;99.90
8332;DHT22;4203;48.144;14.118;2023-10-19T15:07:51;14.30;99.90
8332;DHT22;4203;48.144;14.118;2023-10-19T15:10:22;14.10;99.90
8332;DHT22;4203;48.144;14.118;2023-10-19T15:12:49;14.00;99.90
8332;DHT22;4203;48.144;14.118;2023-10-19T15:15:17;13.90;99.90
8332;DHT22;4203;48.144;14.118;2023-10-19T15:17:44;13.80;99.90
8332;DHT22;4203;48.144;14.118;2023-10-19T15:20:14;13.70;99.90
8332;DHT22;4203;48.144;14.118;2023-10-19T15:22:42;13.60;99.90
8332;DHT22;4203;48.144;14.118;2023-10-19T15:25:11;13.50;99.90
8332;DHT22;4203;48.144;14.118;2023-10-19T15:27:39;13.40;99.90
8332;DHT22;4203;48.144;14.118;2023-10-19T15:30:09;13.40;99.90
8332;DHT22;4203;48.144;14.118;2023-10-19T15:32:37;13.40;99.90
8332;DHT22;4203;48.144;14.118;2023-10-19T15:35:08;13.30;99.90
8332;DHT22;4203;48.144;14.118;2023-10-19T15:37:39;13.20;99.90
8332;DHT22;4203;48.144;14.118;2023-10-19T15:40:08;13.10;99.90
8332;DHT22;4203;48.144;14.118;2023-10-19T15:42:38;13.10;99.90
8332;DHT22;4203;48.144;14.118;2023-10-19T15:45:08;13.00;99.90
8332;DHT22;4203;48.144;14.118;2023-10-19T15:47:37;13.00;99.90
8332;DHT22;4203;48.144;14.118;2023-10-19T15:50:07;12.90;99.90
8332;DHT22;4203;48.144;14.118;2023-10-19T15:52:35;12.80;99.90
8332;DHT22;4203;48.144;14.118;2023-10-19T15:55:10;12.80;99.90
8332;DHT22;4203;48.144;14.118;2023-10-19T15:57:37;12.70;99.90
8332;DHT22;4203;48.144;14.118;2023-10-19T16:00:07;12.70;99.90
8332;DHT22;4203;48.144;14.118;2023-10-19T16:02:39;12.60;99.90
8332;DHT22;4203;48.144;14.118;2023-10-19T16:05:07;12.60;99.90
8332;DHT22;4203;48.144;14.118;2023-10-19T16:07:34;12.60;99.90
8332;DHT22;4203;48.144;14.118;2023-10-19T16:10:02;12.50;99.90
8332;DHT22;4203;48.144;14.118;2023-10-19T16:12:32;12.50;99.90